sensor_id;sensor_type;location;lat;lon;timestamp;temperature;humidity
6252;DHT22;3159;52.414;9.784;2022-08-18T00:02:02;22.00;99.90
6252;DHT22;3159;52.414;9.784;2022-08-18T00:04:30;22.00;99.90
6252;DHT22;3159;52.414;9.784;2022-08-18T00:06:57;22.00;99.90
6252;DHT22;3159;52.414;9.784;2022-08-18T00:09:24;22.00;99.90
6252;DHT22;3159;52.414;9.784;2022-08-18T00:11:51;21.90;99.90
6252;DHT22;3159;52.414;9.784;2022-08-18T00:14:20;22.00;99.90
6252;DHT22;3159;52.414;9.784;2022-08-18T00:16:48;22.00;99.90
6252;DHT22;3159;52.414;9.784;2022-08-18T00:19:17;22.10;99.90
6252;DHT22;3159;52.414;9.784;2022-08-18T00:21:44;22.00;99.90
6252;DHT22;3159;52.414;9.784;2022-08-18T00:24:11;22.00;99.90
6252;DHT22;3159;52.414;9.784;2022-08-18T00:26:38;22.00;99.90
6252;DHT22;3159;52.414;9.784;2022-08-18T00:29:05;21.90;99.90
6252;DHT22;3159;52.414;9.784;2022-08-18T00:31:32;21.90;99.90
6252;DHT22;3159;52.414;9.784;2022-08-18T00:33:59;21.90;99.90
6252;DHT22;3159;52.414;9.784;2022-08-18T00:36:27;21.80;99.90
6252;DHT22;3159;52.414;9.784;2022-08-18T00:38:56;22.00;99.90
6252;DHT22;3159;52.414;9.784;2022-08-18T00:41:23;22.00;99.90
6252;DHT22;3159;52.414;9.784;2022-08-18T00:43:52;22.00;99.90
6252;DHT22;3159;52.414;9.784;2022-08-18T00:46:22;22.00;99.90
6252;DHT22;3159;52.414;9.784;2022-08-18T00:48:50;22.00;99.90
6252;DHT22;3159;52.414;9.784;2022-08-18T00:51:21;22.10;99.90
6252;DHT22;3159;52.414;9.784;2022-08-18T00:53:55;22.10;99.90
6252;DHT22;3159;52.414;9.784;2022-08-18T00:56:26;22.10;99.90
6252;DHT22;3159;52.414;9.784;2022-08-18T00:58:58;22.10;99.90
6252;DHT22;3159;52.414;9.784;2022-08-18T01:01:27;22.10;99.90
6252;DHT22;3159;52.414;9.784;2022-08-18T01:03:59;22.20;99.90
6252;DHT22;3159;52.414;9.784;2022-08-18T01:06:33;22.20;99.90
6252;DHT22;3159;52.414;9.784;2022-08-18T01:09:05;22.20;99.90
6252;DHT22;3159;52.414;9.784;2022-08-18T01:11:33;22.20;99.90
6252;DHT22;3159;52.414;9.784;2022-08-18T01:14:01;22.20;99.90
6252;DHT22;3159;52.414;9.784;2022-08-18T01:16:28;22.20;99.90
6252;DHT22;3159;52.414;9.784;2022-08-18T01:19:13;22.20;99.90
6252;DHT22;3159;52.414;9.784;2022-08-18T01:22:04;22.20;99.90
6252;DHT22;3159;52.414;9.784;2022-08-18T01:24:35;22.20;99.90
6252;DHT22;3159;52.414;9.784;2022-08-18T01:27:29;22.20;99.90
6252;DHT22;3159;52.414;9.784;2022-08-18T01:30:03;22.20;99.90
6252;DHT22;3159;52.414;9.784;2022-08-18T01:32:31;22.10;99.90
6252;DHT22;3159;52.414;9.784;2022-08-18T01:34:59;22.00;99.90
6252;DHT22;3159;52.414;9.784;2022-08-18T01:37:26;22.00;99.90
6252;DHT22;3159;52.414;9.784;2022-08-18T01:39:55;22.10;99.90
6252;DHT22;3159;52.414;9.784;2022-08-18T01:42:22;22.00;99.90
6252;DHT22;3159;52.414;9.784;2022-08-18T01:44:49;22.00;99.90
6252;DHT22;3159;52.414;9.784;2022-08-18T01:47:18;22.00;99.90
6252;DHT22;3159;52.414;9.784;2022-08-18T01:49:45;22.00;99.90
6252;DHT22;3159;52.414;9.784;2022-08-18T01:52:15;21.90;99.90
6252;DHT22;3159;52.414;9.784;2022-08-18T01:54:45;21.90;99.90
6252;DHT22;3159;52.414;9.784;2022-08-18T01:57:14;21.90;99.90
6252;DHT22;3159;52.414;9.784;2022-08-18T01:59:41;21.80;99.90
6252;DHT22;3159;52.414;9.784;2022-08-18T02:02:09;21.80;99.90
6252;DHT22;3159;52.414;9.784;2022-08-18T02:04:40;21.80;99.90
6252;DHT22;3159;52.414;9.784;2022-08-18T02:07:09;21.80;99.90
6252;DHT22;3159;52.414;9.784;2022-08-18T02:09:37;21.80;99.90
6252;DHT22;3159;52.414;9.784;2022-08-18T02:12:06;21.70;99.90
6252;DHT22;3159;52.414;9.784;2022-08-18T02:14:35;21.60;99.90
6252;DHT22;3159;52.414;9.784;2022-08-18T02:17:04;21.70;99.90
6252;DHT22;3159;52.414;9.784;2022-08-18T02:19:35;21.70;99.90
6252;DHT22;3159;52.414;9.784;2022-08-18T02:22:03;21.70;99.90
6252;DHT22;3159;52.414;9.784;2022-08-18T02:24:30;21.80;99.90
6252;DHT22;3159;52.414;9.784;2022-08-18T02:26:57;21.80;99.90
6252;DHT22;3159;52.414;9.784;2022-08-18T02:29:24;21.80;99.90
6252;DHT22;3159;52.414;9.784;2022-08-18T02:31:53;21.80;99.90
6252;DHT22;3159;52.414;9.784;2022-08-18T02:34:20;21.70;99.90
6252;DHT22;3159;52.414;9.784;2022-08-18T02:36:47;21.70;99.90
6252;DHT22;3159;52.414;9.784;2022-08-18T02:39:14;21.70;99.90
6252;DHT22;3159;52.414;9.784;2022-08-18T02:41:40;21.50;99.90
6252;DHT22;3159;52.414;9.784;2022-08-18T02:44:08;21.50;99.90
6252;DHT22;3159;52.414;9.784;2022-08-18T02:46:35;21.40;99.90
6252;DHT22;3159;52.414;9.784;2022-08-18T02:49:04;21.40;99.90
6252;DHT22;3159;52.414;9.784;2022-08-18T02:51:32;21.40;99.90
6252;DHT22;3159;52.414;9.784;2022-08-18T02:53:59;21.40;99.90
6252;DHT22;3159;52.414;9.784;2022-08-18T02:56:28;21.50;99.90
6252;DHT22;3159;52.414;9.784;2022-08-18T02:58:56;21.40;99.90
6252;DHT22;3159;52.414;9.784;2022-08-18T03:01:25;21.20;99.90
6252;DHT22;3159;52.414;9.784;2022-08-18T03:03:53;21.30;99.90
6252;DHT22;3159;52.414;9.784;2022-08-18T03:06:22;21.30;99.90
6252;DHT22;3159;52.414;9.784;2022-08-18T03:08:49;21.30;99.90
6252;DHT22;3159;52.414;9.784;2022-08-18T03:11:19;21.30;99.90
6252;DHT22;3159;52.414;9.784;2022-08-18T03:13:46;21.20;99.90
6252;DHT22;3159;52.414;9.784;2022-08-18T03:16:13;21.20;99.90
6252;DHT22;3159;52.414;9.784;2022-08-18T03:18:41;21.20;99.90
6252;DHT22;3159;52.414;9.784;2022-08-18T03:21:11;21.20;99.90
6252;DHT22;3159;52.414;9.784;2022-08-18T03:23:39;21.20;99.90
6252;DHT22;3159;52.414;9.784;2022-08-18T03:26:08;21.20;99.90
6252;DHT22;3159;52.414;9.784;2022-08-18T03:28:36;21.20;99.90
6252;DHT22;3159;52.414;9.784;2022-08-18T03:31:05;21.30;99.90
6252;DHT22;3159;52.414;9.784;2022-08-18T03:33:32;21.20;99.90
6252;DHT22;3159;52.414;9.784;2022-08-18T03:36:03;21.20;99.90
6252;DHT22;3159;52.414;9.784;2022-08-18T03:38:30;21.10;99.90
6252;DHT22;3159;52.414;9.784;2022-08-18T03:40:58;21.00;99.90
6252;DHT22;3159;52.414;9.784;2022-08-18T03:43:25;21.00;99.90
6252;DHT22;3159;52.414;9.784;2022-08-18T03:45:52;21.10;99.90
6252;DHT22;3159;52.414;9.784;2022-08-18T03:48:20;21.10;99.90
6252;DHT22;3159;52.414;9.784;2022-08-18T03:50:47;21.20;99.90
6252;DHT22;3159;52.414;9.784;2022-08-18T03:53:14;21.30;99.90
6252;DHT22;3159;52.414;9.784;2022-08-18T03:55:41;21.20;99.90
6252;DHT22;3159;52.414;9.784;2022-08-18T03:58:09;21.10;99.90
6252;DHT22;3159;52.414;9.784;2022-08-18T04:00:39;21.10;99.90
6252;DHT22;3159;52.414;9.784;2022-08-18T04:03:06;21.20;99.90
6252;DHT22;3159;52.414;9.784;2022-08-18T04:05:38;21.20;99.90
6252;DHT22;3159;52.414;9.784;2022-08-18T04:08:05;21.20;99.90
6252;DHT22;3159;52.414;9.784;2022-08-18T04:10:32;21.30;99.90
6252;DHT22;3159;52.414;9.784;2022-08-18T04:13:00;21.30;99.90
6252;DHT22;3159;52.414;9.784;2022-08-18T04:15:28;21.30;99.90
6252;DHT22;3159;52.414;9.784;2022-08-18T04:17:57;21.30;99.90
6252;DHT22;3159;52.414;9.784;2022-08-18T04:20:24;21.30;99.90
6252;DHT22;3159;52.414;9.784;2022-08-18T04:22:51;21.30;99.90
6252;DHT22;3159;52.414;9.784;2022-08-18T04:25:19;21.30;99.90
6252;DHT22;3159;52.414;9.784;2022-08-18T04:27:46;21.20;99.90
6252;DHT22;3159;52.414;9.784;2022-08-18T04:30:13;21.10;99.90
6252;DHT22;3159;52.414;9.784;2022-08-18T04:32:41;21.00;99.90
6252;DHT22;3159;52.414;9.784;2022-08-18T04:35:08;21.00;99.90
6252;DHT22;3159;52.414;9.784;2022-08-18T04:37:36;21.10;99.90
6252;DHT22;3159;52.414;9.784;2022-08-18T04:40:04;21.10;99.90
6252;DHT22;3159;52.414;9.784;2022-08-18T04:42:32;21.10;99.90
6252;DHT22;3159;52.414;9.784;2022-08-18T04:44:59;21.20;99.90
6252;DHT22;3159;52.414;9.784;2022-08-18T04:47:26;21.20;99.90
6252;DHT22;3159;52.414;9.784;2022-08-18T04:49:54;21.20;99.90
6252;DHT22;3159;52.414;9.784;2022-08-18T04:52:21;21.30;99.90
6252;DHT22;3159;52.414;9.784;2022-08-18T04:55:06;21.30;99.90
6252;DHT22;3159;52.414;9.784;2022-08-18T04:57:33;21.40;99.90
6252;DHT22;3159;52.414;9.784;2022-08-18T05:00:00;21.30;99.90
6252;DHT22;3159;52.414;9.784;2022-08-18T05:02:27;21.30;99.90
6252;DHT22;3159;52.414;9.784;2022-08-18T05:04:56;21.20;99.90
6252;DHT22;3159;52.414;9.784;2022-08-18T05:07:23;21.20;99.90
6252;DHT22;3159;52.414;9.784;2022-08-18T05:09:50;21.10;99.90
6252;DHT22;3159;52.414;9.784;2022-08-18T05:12:19;21.00;99.90
6252;DHT22;3159;52.414;9.784;2022-08-18T05:14:46;21.00;99.90
6252;DHT22;3159;52.414;9.784;2022-08-18T05:17:14;21.10;99.90
6252;DHT22;3159;52.414;9.784;2022-08-18T05:19:42;21.00;99.90
6252;DHT22;3159;52.414;9.784;2022-08-18T05:22:12;21.00;99.90
6252;DHT22;3159;52.414;9.784;2022-08-18T05:24:42;21.10;99.90
6252;DHT22;3159;52.414;9.784;2022-08-18T05:27:09;21.20;99.90
6252;DHT22;3159;52.414;9.784;2022-08-18T05:29:37;21.20;99.90
6252;DHT22;3159;52.414;9.784;2022-08-18T05:32:04;21.20;99.90
6252;DHT22;3159;52.414;9.784;2022-08-18T05:34:33;21.30;99.90
6252;DHT22;3159;52.414;9.784;2022-08-18T05:37:09;21.30;99.90
6252;DHT22;3159;52.414;9.784;2022-08-18T05:39:46;21.50;99.90
6252;DHT22;3159;52.414;9.784;2022-08-18T05:42:14;21.50;99.90
6252;DHT22;3159;52.414;9.784;2022-08-18T05:44:45;21.50;99.90
6252;DHT22;3159;52.414;9.784;2022-08-18T05:47:16;21.50;99.90
6252;DHT22;3159;52.414;9.784;2022-08-18T05:49:46;21.20;99.90
6252;DHT22;3159;52.414;9.784;2022-08-18T05:52:17;21.40;99.90
6252;DHT22;3159;52.414;9.784;2022-08-18T05:54:49;21.50;99.90
6252;DHT22;3159;52.414;9.784;2022-08-18T05:57:39;21.60;99.90
6252;DHT22;3159;52.414;9.784;2022-08-18T06:00:08;21.50;99.90
6252;DHT22;3159;52.414;9.784;2022-08-18T06:02:41;21.60;99.90
6252;DHT22;3159;52.414;9.784;2022-08-18T06:05:14;21.70;99.90
6252;DHT22;3159;52.414;9.784;2022-08-18T06:07:44;21.70;99.90
6252;DHT22;3159;52.414;9.784;2022-08-18T06:10:13;21.90;99.90
6252;DHT22;3159;52.414;9.784;2022-08-18T06:12:42;22.00;99.90
6252;DHT22;3159;52.414;9.784;2022-08-18T06:15:14;22.00;99.90
6252;DHT22;3159;52.414;9.784;2022-08-18T06:18:02;22.00;99.90
6252;DHT22;3159;52.414;9.784;2022-08-18T06:20:37;22.00;99.90
6252;DHT22;3159;52.414;9.784;2022-08-18T06:23:20;22.10;99.90
6252;DHT22;3159;52.414;9.784;2022-08-18T06:26:00;22.00;99.90
6252;DHT22;3159;52.414;9.784;2022-08-18T06:28:38;22.10;99.90
6252;DHT22;3159;52.414;9.784;2022-08-18T06:31:17;22.10;99.90
6252;DHT22;3159;52.414;9.784;2022-08-18T06:33:54;22.00;99.90
6252;DHT22;3159;52.414;9.784;2022-08-18T06:36:33;22.10;99.90
6252;DHT22;3159;52.414;9.784;2022-08-18T06:39:07;22.10;99.90
6252;DHT22;3159;52.414;9.784;2022-08-18T06:41:38;22.10;99.90
6252;DHT22;3159;52.414;9.784;2022-08-18T06:44:10;21.90;99.90
6252;DHT22;3159;52.414;9.784;2022-08-18T06:46:41;22.00;99.90
6252;DHT22;3159;52.414;9.784;2022-08-18T06:49:13;22.10;99.90
6252;DHT22;3159;52.414;9.784;2022-08-18T06:51:43;21.90;99.90
6252;DHT22;3159;52.414;9.784;2022-08-18T06:54:26;22.00;99.90
6252;DHT22;3159;52.414;9.784;2022-08-18T06:56:56;21.80;99.90
6252;DHT22;3159;52.414;9.784;2022-08-18T06:59:25;21.70;99.90
6252;DHT22;3159;52.414;9.784;2022-08-18T07:01:55;21.60;99.90
6252;DHT22;3159;52.414;9.784;2022-08-18T07:04:40;21.50;99.90
6252;DHT22;3159;52.414;9.784;2022-08-18T07:07:19;21.50;99.90
6252;DHT22;3159;52.414;9.784;2022-08-18T07:09:54;21.60;99.90
6252;DHT22;3159;52.414;9.784;2022-08-18T07:12:26;21.60;99.90
6252;DHT22;3159;52.414;9.784;2022-08-18T07:14:55;21.60;99.90
6252;DHT22;3159;52.414;9.784;2022-08-18T07:17:25;21.60;99.90
6252;DHT22;3159;52.414;9.784;2022-08-18T07:19:59;21.60;99.90
6252;DHT22;3159;52.414;9.784;2022-08-18T07:22:26;21.70;99.90
6252;DHT22;3159;52.414;9.784;2022-08-18T07:24:56;21.60;99.90
6252;DHT22;3159;52.414;9.784;2022-08-18T07:27:42;21.70;99.90
6252;DHT22;3159;52.414;9.784;2022-08-18T07:30:12;21.60;99.90
6252;DHT22;3159;52.414;9.784;2022-08-18T07:32:43;21.60;99.90
6252;DHT22;3159;52.414;9.784;2022-08-18T07:35:16;21.70;99.90
6252;DHT22;3159;52.414;9.784;2022-08-18T07:37:47;21.60;99.90
6252;DHT22;3159;52.414;9.784;2022-08-18T07:40:24;21.60;99.90
6252;DHT22;3159;52.414;9.784;2022-08-18T07:42:58;21.60;99.90
6252;DHT22;3159;52.414;9.784;2022-08-18T07:45:31;21.40;99.90
6252;DHT22;3159;52.414;9.784;2022-08-18T07:48:05;21.40;99.90
6252;DHT22;3159;52.414;9.784;2022-08-18T07:50:37;21.40;99.90
6252;DHT22;3159;52.414;9.784;2022-08-18T07:53:12;21.50;99.90
6252;DHT22;3159;52.414;9.784;2022-08-18T07:55:46;21.60;99.90
6252;DHT22;3159;52.414;9.784;2022-08-18T07:58:24;21.40;99.90
6252;DHT22;3159;52.414;9.784;2022-08-18T08:01:00;21.40;99.90
6252;DHT22;3159;52.414;9.784;2022-08-18T08:03:36;21.50;99.90
6252;DHT22;3159;52.414;9.784;2022-08-18T08:06:10;21.50;99.90
6252;DHT22;3159;52.414;9.784;2022-08-18T08:08:43;21.50;99.90
6252;DHT22;3159;52.414;9.784;2022-08-18T08:11:25;21.30;99.90
6252;DHT22;3159;52.414;9.784;2022-08-18T08:14:08;21.50;99.90
6252;DHT22;3159;52.414;9.784;2022-08-18T08:16:46;21.70;99.90
6252;DHT22;3159;52.414;9.784;2022-08-18T08:19:28;21.60;99.90
6252;DHT22;3159;52.414;9.784;2022-08-18T08:22:03;21.60;99.90
6252;DHT22;3159;52.414;9.784;2022-08-18T08:24:41;21.70;99.90
6252;DHT22;3159;52.414;9.784;2022-08-18T08:27:17;21.80;99.90
6252;DHT22;3159;52.414;9.784;2022-08-18T08:29:54;21.90;99.90
6252;DHT22;3159;52.414;9.784;2022-08-18T08:32:31;21.80;99.90
6252;DHT22;3159;52.414;9.784;2022-08-18T08:35:04;21.90;99.90
6252;DHT22;3159;52.414;9.784;2022-08-18T08:37:37;21.90;99.90
6252;DHT22;3159;52.414;9.784;2022-08-18T08:40:08;22.00;99.90
6252;DHT22;3159;52.414;9.784;2022-08-18T08:42:41;21.90;99.90
6252;DHT22;3159;52.414;9.784;2022-08-18T08:45:15;22.20;99.90
6252;DHT22;3159;52.414;9.784;2022-08-18T08:47:50;22.40;99.90
6252;DHT22;3159;52.414;9.784;2022-08-18T08:50:24;22.90;99.90
6252;DHT22;3159;52.414;9.784;2022-08-18T08:52:54;23.20;99.90
6252;DHT22;3159;52.414;9.784;2022-08-18T08:55:26;23.40;99.90
6252;DHT22;3159;52.414;9.784;2022-08-18T08:58:00;23.80;99.90
6252;DHT22;3159;52.414;9.784;2022-08-18T09:00:30;23.90;99.90
6252;DHT22;3159;52.414;9.784;2022-08-18T09:03:11;24.20;99.90
6252;DHT22;3159;52.414;9.784;2022-08-18T09:05:51;24.30;99.90
6252;DHT22;3159;52.414;9.784;2022-08-18T09:08:34;24.10;99.90
6252;DHT22;3159;52.414;9.784;2022-08-18T09:14:43;24.50;99.90
6252;DHT22;3159;52.414;9.784;2022-08-18T09:20:33;24.50;99.90
6252;DHT22;3159;52.414;9.784;2022-08-18T09:23:07;24.70;99.90
6252;DHT22;3159;52.414;9.784;2022-08-18T09:25:45;25.30;99.90
6252;DHT22;3159;52.414;9.784;2022-08-18T09:28:14;25.60;99.90
6252;DHT22;3159;52.414;9.784;2022-08-18T09:30:52;25.80;99.90
6252;DHT22;3159;52.414;9.784;2022-08-18T09:33:27;26.20;99.90
6252;DHT22;3159;52.414;9.784;2022-08-18T09:36:09;26.40;99.90
6252;DHT22;3159;52.414;9.784;2022-08-18T09:38:49;26.40;99.90
6252;DHT22;3159;52.414;9.784;2022-08-18T09:41:39;26.40;99.90
6252;DHT22;3159;52.414;9.784;2022-08-18T09:44:14;26.50;99.90
6252;DHT22;3159;52.414;9.784;2022-08-18T09:47:02;26.60;99.90
6252;DHT22;3159;52.414;9.784;2022-08-18T09:49:47;26.70;99.90
6252;DHT22;3159;52.414;9.784;2022-08-18T09:55:48;26.90;99.90
6252;DHT22;3159;52.414;9.784;2022-08-18T09:58:25;27.40;99.90
6252;DHT22;3159;52.414;9.784;2022-08-18T10:01:31;27.00;99.90
6252;DHT22;3159;52.414;9.784;2022-08-18T10:04:28;27.50;99.90
6252;DHT22;3159;52.414;9.784;2022-08-18T10:07:16;28.10;99.90
6252;DHT22;3159;52.414;9.784;2022-08-18T10:09:55;28.30;99.90
6252;DHT22;3159;52.414;9.784;2022-08-18T10:12:51;28.40;99.90
6252;DHT22;3159;52.414;9.784;2022-08-18T10:15:31;28.40;99.90
6252;DHT22;3159;52.414;9.784;2022-08-18T10:18:25;28.40;99.90
6252;DHT22;3159;52.414;9.784;2022-08-18T10:21:06;28.30;99.90
6252;DHT22;3159;52.414;9.784;2022-08-18T10:23:45;28.30;99.90
6252;DHT22;3159;52.414;9.784;2022-08-18T10:29:48;27.50;99.90
6252;DHT22;3159;52.414;9.784;2022-08-18T10:32:21;28.30;99.90
6252;DHT22;3159;52.414;9.784;2022-08-18T10:34:50;28.70;99.90
6252;DHT22;3159;52.414;9.784;2022-08-18T10:37:19;28.40;99.90
6252;DHT22;3159;52.414;9.784;2022-08-18T10:39:50;29.00;99.90
6252;DHT22;3159;52.414;9.784;2022-08-18T10:42:22;29.30;99.90
6252;DHT22;3159;52.414;9.784;2022-08-18T10:44:59;28.70;99.90
6252;DHT22;3159;52.414;9.784;2022-08-18T10:47:29;28.80;99.90
6252;DHT22;3159;52.414;9.784;2022-08-18T10:49:58;29.10;99.90
6252;DHT22;3159;52.414;9.784;2022-08-18T10:52:40;29.60;99.90
6252;DHT22;3159;52.414;9.784;2022-08-18T10:55:23;29.00;99.90
6252;DHT22;3159;52.414;9.784;2022-08-18T10:58:08;28.90;99.90
6252;DHT22;3159;52.414;9.784;2022-08-18T11:00:47;29.20;99.90
6252;DHT22;3159;52.414;9.784;2022-08-18T11:03:26;29.30;99.90
6252;DHT22;3159;52.414;9.784;2022-08-18T11:06:04;29.10;99.90
6252;DHT22;3159;52.414;9.784;2022-08-18T11:08:36;29.70;99.90
6252;DHT22;3159;52.414;9.784;2022-08-18T11:11:07;30.10;99.90
6252;DHT22;3159;52.414;9.784;2022-08-18T11:13:39;29.40;99.90
6252;DHT22;3159;52.414;9.784;2022-08-18T11:16:16;29.60;99.90
6252;DHT22;3159;52.414;9.784;2022-08-18T11:18:53;29.70;99.90
6252;DHT22;3159;52.414;9.784;2022-08-18T11:21:32;30.30;99.90
6252;DHT22;3159;52.414;9.784;2022-08-18T11:24:08;30.80;99.90
6252;DHT22;3159;52.414;9.784;2022-08-18T11:26:38;30.20;99.90
6252;DHT22;3159;52.414;9.784;2022-08-18T11:29:23;30.20;99.90
6252;DHT22;3159;52.414;9.784;2022-08-18T11:31:55;29.90;99.90
6252;DHT22;3159;52.414;9.784;2022-08-18T11:34:28;30.30;99.90
6252;DHT22;3159;52.414;9.784;2022-08-18T11:37:01;30.30;99.90
6252;DHT22;3159;52.414;9.784;2022-08-18T11:39:29;30.00;99.90
6252;DHT22;3159;52.414;9.784;2022-08-18T11:41:57;30.20;99.90
6252;DHT22;3159;52.414;9.784;2022-08-18T11:44:29;29.90;99.90
6252;DHT22;3159;52.414;9.784;2022-08-18T11:47:14;30.00;99.90
6252;DHT22;3159;52.414;9.784;2022-08-18T11:49:52;30.60;99.90
6252;DHT22;3159;52.414;9.784;2022-08-18T11:52:24;29.90;99.90
6252;DHT22;3159;52.414;9.784;2022-08-18T11:54:57;29.80;99.90
6252;DHT22;3159;52.414;9.784;2022-08-18T11:57:30;29.00;99.90
6252;DHT22;3159;52.414;9.784;2022-08-18T11:59:57;29.90;99.90
6252;DHT22;3159;52.414;9.784;2022-08-18T12:02:27;30.60;99.90
6252;DHT22;3159;52.414;9.784;2022-08-18T12:04:55;30.70;99.90
6252;DHT22;3159;52.414;9.784;2022-08-18T12:07:30;30.90;99.90
6252;DHT22;3159;52.414;9.784;2022-08-18T12:10:15;30.80;99.90
6252;DHT22;3159;52.414;9.784;2022-08-18T12:12:46;30.60;99.90
6252;DHT22;3159;52.414;9.784;2022-08-18T12:15:26;30.20;99.90
6252;DHT22;3159;52.414;9.784;2022-08-18T12:17:55;30.20;99.90
6252;DHT22;3159;52.414;9.784;2022-08-18T12:20:22;29.80;99.90
6252;DHT22;3159;52.414;9.784;2022-08-18T12:22:49;29.80;99.90
6252;DHT22;3159;52.414;9.784;2022-08-18T12:25:19;29.60;99.90
6252;DHT22;3159;52.414;9.784;2022-08-18T12:27:49;30.40;99.90
6252;DHT22;3159;52.414;9.784;2022-08-18T12:30:16;30.50;99.90
6252;DHT22;3159;52.414;9.784;2022-08-18T12:32:43;31.10;99.90
6252;DHT22;3159;52.414;9.784;2022-08-18T12:35:13;31.20;99.90
6252;DHT22;3159;52.414;9.784;2022-08-18T12:37:42;30.60;99.90
6252;DHT22;3159;52.414;9.784;2022-08-18T12:40:10;30.00;99.90
6252;DHT22;3159;52.414;9.784;2022-08-18T12:42:38;30.00;99.90
6252;DHT22;3159;52.414;9.784;2022-08-18T12:45:06;30.10;99.90
6252;DHT22;3159;52.414;9.784;2022-08-18T12:47:37;29.90;99.90
6252;DHT22;3159;52.414;9.784;2022-08-18T12:50:06;29.70;99.90
6252;DHT22;3159;52.414;9.784;2022-08-18T12:52:34;29.20;99.90
6252;DHT22;3159;52.414;9.784;2022-08-18T12:55:02;29.30;99.90
6252;DHT22;3159;52.414;9.784;2022-08-18T12:57:29;29.50;99.90
6252;DHT22;3159;52.414;9.784;2022-08-18T12:59:56;29.00;99.90
6252;DHT22;3159;52.414;9.784;2022-08-18T13:02:23;28.80;99.90
6252;DHT22;3159;52.414;9.784;2022-08-18T13:04:50;28.80;99.90
6252;DHT22;3159;52.414;9.784;2022-08-18T13:07:17;28.60;99.90
6252;DHT22;3159;52.414;9.784;2022-08-18T13:09:45;28.80;99.90
6252;DHT22;3159;52.414;9.784;2022-08-18T13:12:12;29.10;99.90
6252;DHT22;3159;52.414;9.784;2022-08-18T13:14:40;28.80;99.90
6252;DHT22;3159;52.414;9.784;2022-08-18T13:17:07;29.40;99.90
6252;DHT22;3159;52.414;9.784;2022-08-18T13:19:34;29.30;99.90
6252;DHT22;3159;52.414;9.784;2022-08-18T13:22:02;29.30;99.90
6252;DHT22;3159;52.414;9.784;2022-08-18T13:24:29;29.40;99.90
6252;DHT22;3159;52.414;9.784;2022-08-18T13:27:00;29.20;99.90
6252;DHT22;3159;52.414;9.784;2022-08-18T13:29:28;29.00;99.90
6252;DHT22;3159;52.414;9.784;2022-08-18T13:31:55;29.20;99.90
6252;DHT22;3159;52.414;9.784;2022-08-18T13:34:25;29.50;99.90
6252;DHT22;3159;52.414;9.784;2022-08-18T13:36:53;29.70;99.90
6252;DHT22;3159;52.414;9.784;2022-08-18T13:39:22;29.60;99.90
6252;DHT22;3159;52.414;9.784;2022-08-18T13:41:51;29.60;99.90
6252;DHT22;3159;52.414;9.784;2022-08-18T13:44:21;29.40;99.90
6252;DHT22;3159;52.414;9.784;2022-08-18T13:46:49;29.60;99.90
6252;DHT22;3159;52.414;9.784;2022-08-18T13:49:18;29.60;99.90
6252;DHT22;3159;52.414;9.784;2022-08-18T13:51:47;29.70;99.90
6252;DHT22;3159;52.414;9.784;2022-08-18T13:54:19;29.50;99.90
6252;DHT22;3159;52.414;9.784;2022-08-18T13:56:46;29.30;99.90
6252;DHT22;3159;52.414;9.784;2022-08-18T13:59:13;28.60;99.90
6252;DHT22;3159;52.414;9.784;2022-08-18T14:01:43;28.40;99.90
6252;DHT22;3159;52.414;9.784;2022-08-18T14:04:11;28.30;99.90
6252;DHT22;3159;52.414;9.784;2022-08-18T14:06:38;28.50;99.90
6252;DHT22;3159;52.414;9.784;2022-08-18T14:09:06;28.40;99.90
6252;DHT22;3159;52.414;9.784;2022-08-18T14:11:34;28.30;99.90
6252;DHT22;3159;52.414;9.784;2022-08-18T14:14:02;28.20;99.90
6252;DHT22;3159;52.414;9.784;2022-08-18T14:16:30;28.20;99.90
6252;DHT22;3159;52.414;9.784;2022-08-18T14:18:59;28.50;99.90
6252;DHT22;3159;52.414;9.784;2022-08-18T14:21:45;28.20;99.90
6252;DHT22;3159;52.414;9.784;2022-08-18T14:24:31;27.90;99.90
6252;DHT22;3159;52.414;9.784;2022-08-18T14:27:16;27.80;99.90
6252;DHT22;3159;52.414;9.784;2022-08-18T14:29:43;27.60;99.90
6252;DHT22;3159;52.414;9.784;2022-08-18T14:32:12;27.70;99.90
6252;DHT22;3159;52.414;9.784;2022-08-18T14:34:41;27.90;99.90
6252;DHT22;3159;52.414;9.784;2022-08-18T14:37:10;27.80;99.90
6252;DHT22;3159;52.414;9.784;2022-08-18T14:39:37;27.50;99.90
6252;DHT22;3159;52.414;9.784;2022-08-18T14:42:04;27.60;99.90
6252;DHT22;3159;52.414;9.784;2022-08-18T14:44:31;27.50;99.90
6252;DHT22;3159;52.414;9.784;2022-08-18T14:46:58;27.40;99.90
6252;DHT22;3159;52.414;9.784;2022-08-18T14:49:25;27.60;99.90
6252;DHT22;3159;52.414;9.784;2022-08-18T14:51:58;27.60;99.90
6252;DHT22;3159;52.414;9.784;2022-08-18T14:54:26;27.70;99.90
6252;DHT22;3159;52.414;9.784;2022-08-18T14:56:54;27.60;99.90
6252;DHT22;3159;52.414;9.784;2022-08-18T14:59:21;27.70;99.90
6252;DHT22;3159;52.414;9.784;2022-08-18T15:01:53;27.30;99.90
6252;DHT22;3159;52.414;9.784;2022-08-18T15:04:20;27.20;99.90
6252;DHT22;3159;52.414;9.784;2022-08-18T15:06:48;27.40;99.90
6252;DHT22;3159;52.414;9.784;2022-08-18T15:09:16;27.40;99.90
6252;DHT22;3159;52.414;9.784;2022-08-18T15:11:43;27.40;99.90
6252;DHT22;3159;52.414;9.784;2022-08-18T15:14:10;27.30;99.90
6252;DHT22;3159;52.414;9.784;2022-08-18T15:16:38;27.20;99.90
6252;DHT22;3159;52.414;9.784;2022-08-18T15:19:07;27.00;99.90
6252;DHT22;3159;52.414;9.784;2022-08-18T15:21:33;27.00;99.90
6252;DHT22;3159;52.414;9.784;2022-08-18T15:24:27;26.90;99.90
6252;DHT22;3159;52.414;9.784;2022-08-18T15:27:12;26.80;99.90
6252;DHT22;3159;52.414;9.784;2022-08-18T15:29:41;26.90;99.90
6252;DHT22;3159;52.414;9.784;2022-08-18T15:32:09;26.70;99.90
6252;DHT22;3159;52.414;9.784;2022-08-18T15:34:39;26.70;99.90
6252;DHT22;3159;52.414;9.784;2022-08-18T15:37:08;26.60;99.90
6252;DHT22;3159;52.414;9.784;2022-08-18T15:39:36;26.70;99.90
6252;DHT22;3159;52.414;9.784;2022-08-18T15:42:09;26.60;99.90
6252;DHT22;3159;52.414;9.784;2022-08-18T15:44:36;26.60;99.90
6252;DHT22;3159;52.414;9.784;2022-08-18T15:47:04;26.60;99.90
6252;DHT22;3159;52.414;9.784;2022-08-18T15:49:32;26.70;99.90
6252;DHT22;3159;52.414;9.784;2022-08-18T15:51:59;26.60;99.90
6252;DHT22;3159;52.414;9.784;2022-08-18T15:54:26;26.40;99.90
6252;DHT22;3159;52.414;9.784;2022-08-18T15:56:56;26.50;99.90
6252;DHT22;3159;52.414;9.784;2022-08-18T15:59:23;26.50;99.90
6252;DHT22;3159;52.414;9.784;2022-08-18T16:01:50;26.60;99.90
6252;DHT22;3159;52.414;9.784;2022-08-18T16:04:17;26.50;99.90
6252;DHT22;3159;52.414;9.784;2022-08-18T16:06:47;26.50;99.90
6252;DHT22;3159;52.414;9.784;2022-08-18T16:09:15;26.60;99.90
6252;DHT22;3159;52.414;9.784;2022-08-18T16:11:42;26.60;99.90
6252;DHT22;3159;52.414;9.784;2022-08-18T16:14:11;26.70;99.90
6252;DHT22;3159;52.414;9.784;2022-08-18T16:16:38;26.40;99.90
6252;DHT22;3159;52.414;9.784;2022-08-18T16:19:05;26.50;99.90
6252;DHT22;3159;52.414;9.784;2022-08-18T16:21:32;26.50;99.90
6252;DHT22;3159;52.414;9.784;2022-08-18T16:24:00;26.50;99.90
6252;DHT22;3159;52.414;9.784;2022-08-18T16:26:27;26.60;99.90
6252;DHT22;3159;52.414;9.784;2022-08-18T16:28:54;26.60;99.90
6252;DHT22;3159;52.414;9.784;2022-08-18T16:31:23;26.60;99.90
6252;DHT22;3159;52.414;9.784;2022-08-18T16:33:52;26.60;99.90
6252;DHT22;3159;52.414;9.784;2022-08-18T16:36:20;26.60;99.90
6252;DHT22;3159;52.414;9.784;2022-08-18T16:38:50;26.50;99.90
6252;DHT22;3159;52.414;9.784;2022-08-18T16:41:17;26.60;99.90
6252;DHT22;3159;52.414;9.784;2022-08-18T16:43:45;26.60;99.90